Time;durP1;ratioP1;P1;durP2;ratioP2;P2;SDS_P1;SDS_P2;PMS_P1;PMS_P2;Temp;Humidity;BMP_temperature;BMP_pressure;BME280_temperature;BME280_humidity;BME280_pressure;Samples;Min_cycle;Max_cycle;Signal;HPM_P1;HPM_P2
2023/05/19 07:01:15;;;;;;;0.25;0.25;;;18.10;99.90;22.20;102464.00;;;;6248586;22;2094557;-68
2023/05/19 07:03:46;;;;;;;0.20;0.20;;;18.90;99.90;21.00;102441.00;;;;6313148;22;20171;-68
2023/05/19 07:06:13;;;;;;;2.80;1.15;;;18.80;99.90;18.10;102543.00;;;;6314043;22;20223;-68
2023/05/19 07:08:42;;;;;;;0.10;0.10;;;17.00;99.90;23.00;102474.00;;;;6340579;22;20147;-68
2023/05/19 07:11:08;;;;;;;6.32;2.58;;;18.30;99.90;21.30;102496.00;;;;6313474;22;20198;-68
2023/05/19 07:13:34;;;;;;;0.30;0.30;;;19.40;99.90;23.60;102475.00;;;;6287108;22;20155;-68
2023/05/19 07:16:00;;;;;;;0.65;0.65;;;19.70;99.90;25.30;102443.00;;;;6313131;22;20518;-68
2023/05/19 07:18:30;;;;;;;2.42;1.70;;;20.60;99.90;20.80;102523.00;;;;6312666;22;20516;-68
2023/05/19 07:20:57;;;;;;;1.77;1.17;;;19.80;99.90;22.60;102508.00;;;;6340155;22;20140;-68
2023/05/19 07:23:26;;;;;;;0.10;0.10;;;19.60;99.90;21.00;102514.00;;;;6340343;22;20177;-69
2023/05/19 07:25:55;;;;;;;1.77;1.10;;;18.70;99.90;21.10;102473.00;;;;6340667;22;20175;-69
2023/05/19 07:28:24;;;;;;;0.38;0.38;;;19.30;99.90;23.20;102486.00;;;;6312744;22;20528;-69
2023/05/19 07:31:24;;;;;;;0.38;0.38;;;20.00;99.90;24.80;102490.00;;;;6286463;22;20156;-69
2023/05/19 07:33:52;;;;;;;0.55;0.55;;;20.80;99.90;21.70;102518.00;;;;6312874;22;20143;-69
2023/05/19 07:36:33;;;;;;;1.25;1.20;;;19.80;99.90;22.70;102503.00;;;;6340414;22;20273;-69
2023/05/19 07:39:02;;;;;;;1.75;1.65;;;20.50;99.90;20.90;102510.00;;;;6340650;22;20215;-69
2023/05/19 07:41:28;;;;;;;0.30;0.30;;;19.00;99.90;23.70;102472.00;;;;6312934;22;20189;-68
2023/05/19 07:43:59;;;;;;;2.65;2.10;;;19.70;99.90;20.20;102446.00;;;;6340394;22;20151;-68
2023/05/19 07:46:32;;;;;;;0.57;0.57;;;19.30;99.90;22.20;102468.00;;;;6313856;22;20548;-68
2023/05/19 07:48:58;;;;;;;0.63;0.63;;;19.00;99.90;20.30;102467.00;;;;6286400;22;20151;-66
2023/05/19 07:51:24;;;;;;;0.80;0.65;;;18.10;99.90;23.60;102400.00;;;;6340186;22;20158;-73
2023/05/19 07:53:53;;;;;;;0.30;0.30;;;19.50;99.90;25.20;102426.00;;;;6340468;22;20135;-73
2023/05/19 07:56:29;;;;;;;1.15;1.15;;;21.20;99.90;25.80;102491.00;;;;6340331;22;20269;-68
2023/05/19 07:58:57;;;;;;;5.72;2.90;;;22.40;99.90;22.50;102519.00;;;;6339378;22;20139;-70
2023/05/19 08:01:52;;;;;;;0.43;0.43;;;21.40;99.90;24.70;102482.00;;;;6312534;22;20529;-69
2023/05/19 08:04:29;;;;;;;0.68;0.68;;;21.30;99.90;25.70;102478.00;;;;6286654;22;20151;-69
2023/05/19 08:06:58;;;;;;;0.77;0.77;;;21.80;99.90;24.30;102489.00;;;;6313518;22;20214;-69
2023/05/19 08:09:29;;;;;;;2.13;1.15;;;22.20;99.90;21.90;102528.00;;;;6312414;22;20247;-68
2023/05/19 08:12:00;;;;;;;2.63;1.27;;;20.50;99.90;24.20;102458.00;;;;6312663;22;20616;-68
2023/05/19 08:14:34;;;;;;;0.20;0.20;;;21.00;99.90;24.00;102484.00;;;;6313143;22;20571;-68
2023/05/19 08:19:55;;;;;;;1.35;0.90;;;21.10;99.90;24.90;102483.00;;;;6317045;22;20167;-68
2023/05/19 08:22:23;;;;;;;0.75;0.75;;;21.60;99.90;23.10;102495.00;;;;6312614;22;20309;-68
2023/05/19 08:24:52;;;;;;;0.60;0.60;;;21.10;99.90;25.50;102478.00;;;;6339451;22;20187;-68
2023/05/19 08:27:59;;;;;;;1.08;0.55;;;21.80;99.90;27.40;102465.00;;;;6339565;22;20132;-66
2023/05/19 08:30:27;;;;;;;0.38;0.38;;;22.90;99.90;25.80;102458.00;;;;6338548;22;20195;-68
2023/05/19 08:32:56;;;;;;;0.45;0.30;;;22.90;99.90;28.00;102449.00;;;;6312331;22;20140;-66
2023/05/19 08:35:26;;;;;;;0.10;0.10;;;23.80;99.90;25.60;102470.00;;;;6311516;22;20156;-68
2023/05/19 08:38:15;;;;;;;0.40;0.17;;;22.90;99.90;23.40;102474.00;;;;6309921;22;20180;-68
2023/05/19 08:41:16;;;;;;;4.18;2.45;;;21.60;99.90;23.00;102484.00;;;;6339242;22;20156;-68
2023/05/19 08:43:42;;;;;;;0.20;0.20;;;20.90;99.90;25.30;102460.00;;;;6312030;22;20179;-68
2023/05/19 08:46:17;;;;;;;0.20;0.20;;;21.30;99.90;27.50;102439.00;;;;6311986;22;20230;-66
2023/05/19 08:48:52;;;;;;;8.20;3.13;;;22.90;99.90;27.40;102394.00;;;;6311920;22;20175;-66
2023/05/19 08:51:49;;;;;;;3.20;2.15;;;23.60;99.90;22.40;102476.00;;;;6312055;22;20222;-68
2023/05/19 08:54:24;;;;;;;1.95;0.90;;;21.70;99.90;24.20;102451.00;;;;6312520;22;20140;-67
2023/05/19 08:56:53;;;;;;;0.13;0.13;;;21.30;99.90;26.10;102450.00;;;;6312106;22;20159;-68
2023/05/19 08:59:22;;;;;;;1.13;1.02;;;22.30;99.90;25.00;102432.00;;;;6286555;22;20202;-67
2023/05/19 09:01:49;;;;;;;1.35;0.90;;;22.80;99.90;24.60;102439.00;;;;6311418;22;20224;-67
2023/05/19 09:04:18;;;;;;;0.28;0.28;;;22.40;99.90;24.30;102449.00;;;;6311777;22;20624;-67
2023/05/19 09:06:50;;;;;;;0.10;0.10;;;21.60;99.90;26.80;102413.00;;;;6339544;22;20178;-68
2023/05/19 09:09:16;;;;;;;1.17;1.08;;;22.70;99.90;26.50;102436.00;;;;6339945;22;20226;-67
2023/05/19 09:11:47;;;;;;;0.75;0.75;;;23.40;99.90;27.40;102417.00;;;;6311234;22;20534;-68
2023/05/19 09:14:13;;;;;;;1.88;1.77;;;23.50;99.90;25.90;102438.00;;;;6312056;22;20203;-67
2023/05/19 09:16:49;;;;;;;0.38;0.38;;;23.80;99.90;24.60;102440.00;;;;6338090;22;20148;-69
2023/05/19 09:19:15;;;;;;;7.72;2.95;;;22.50;99.90;25.00;102451.00;;;;6339314;22;20555;-69
2023/05/19 09:21:42;;;;;;;0.10;0.10;;;22.60;99.90;26.20;102441.00;;;;6311086;22;20140;-68
2023/05/19 09:24:09;;;;;;;0.52;0.52;;;22.70;99.90;23.40;102453.00;;;;6311568;22;20140;-69
2023/05/19 09:26:44;;;;;;;0.98;0.80;;;22.10;99.90;24.70;102433.00;;;;6311200;22;20152;-68
2023/05/19 09:29:17;;;;;;;0.50;0.50;;;22.00;99.90;23.60;102447.00;;;;6339176;22;20162;-68
2023/05/19 09:31:51;;;;;;;0.30;0.30;;;21.90;99.90;23.90;102442.00;;;;6338722;22;20139;-68
2023/05/19 09:34:17;;;;;;;0.43;0.43;;;20.80;99.90;25.70;102423.00;;;;6311974;22;20144;-68
2023/05/19 09:36:45;;;;;;;1.13;0.88;;;21.60;99.90;25.40;102420.00;;;;6285750;22;20465;-68
2023/05/19 09:39:20;;;;;;;4.32;1.25;;;22.20;99.90;26.00;102432.00;;;;6339098;22;20635;-69
2023/05/19 09:41:50;;;;;;;0.85;0.85;;;22.90;99.90;27.80;102419.00;;;;6311397;22;20238;-69
2023/05/19 09:44:19;;;;;;;0.17;0.17;;;23.50;99.90;27.80;102422.00;;;;6311688;22;20140;-67
2023/05/19 09:46:50;;;;;;;0.30;0.30;;;23.80;99.90;26.10;102421.00;;;;6311276;22;20186;-69
2023/05/19 09:49:30;;;;;;;0.10;0.10;;;23.60;99.90;25.40;102423.00;;;;6310927;22;20148;-68
2023/05/19 09:52:05;;;;;;;0.98;0.98;;;22.80;99.90;27.10;102409.00;;;;6312025;22;20139;-68
2023/05/19 09:54:33;;;;;;;1.27;1.27;;;23.60;99.90;25.80;102419.00;;;;6338791;22;20132;-68
2023/05/19 09:57:05;;;;;;;0.22;0.22;;;23.10;99.90;27.90;102410.00;;;;6338701;22;20167;-70
2023/05/19 09:59:31;;;;;;;0.10;0.10;;;23.70;99.90;26.10;102430.00;;;;6338671;22;20167;-67
2023/05/19 10:02:00;;;;;;;0.75;0.75;;;23.20;99.90;26.10;102381.00;;;;6311180;22;20172;-67
2023/05/19 10:04:28;;;;;;;1.60;1.50;;;23.20;99.90;25.30;102418.00;;;;6338751;22;20671;-68
2023/05/19 10:06:58;;;;;;;1.33;1.20;;;22.40;99.90;23.90;102393.00;;;;6310982;22;20139;-68
2023/05/19 10:09:36;;;;;;;0.38;0.38;;;21.80;99.90;24.00;102428.00;;;;6311812;22;20139;-68
2023/05/19 10:12:16;;;;;;;0.70;0.70;;;21.20;99.90;23.30;102450.00;;;;6311885;22;20167;-68
2023/05/19 10:14:54;;;;;;;0.20;0.20;;;21.10;99.90;23.80;102402.00;;;;6311158;22;20218;-65
2023/05/19 10:17:29;;;;;;;1.08;1.08;;;21.10;99.90;22.50;102453.00;;;;6311717;22;20159;-68
2023/05/19 10:19:56;;;;;;;3.10;1.95;;;20.70;99.90;23.50;102445.00;;;;6311414;22;20155;-68
2023/05/19 10:34:03;;;;;;;0.10;0.10;;;19.00;99.90;21.80;102444.00;;;;5090261;28;20856;-66
2023/05/19 10:36:49;;;;;;;0.10;0.10;;;19.20;99.90;23.00;102431.00;;;;5069767;28;20190;-67
2023/05/19 10:39:36;;;;;;;3.83;0.95;;;19.50;99.90;25.70;102411.00;;;;5101210;28;20192;-67
2023/05/19 10:42:24;;;;;;;1.52;0.95;;;21.00;99.90;27.00;102393.00;;;;5061112;28;20659;-64
2023/05/19 10:45:20;;;;;;;0.75;0.55;;;23.00;99.90;25.40;102414.00;;;;5069945;28;20187;-64
2023/05/19 10:47:48;;;;;;;0.88;0.57;;;22.90;99.90;23.60;102422.00;;;;5068461;28;20655;-67
2023/05/19 10:50:36;;;;;;;0.43;0.28;;;21.40;99.90;22.80;102430.00;;;;5102902;28;20219;-68
2023/05/19 10:53:22;;;;;;;1.55;1.45;;;20.80;99.90;22.60;102383.00;;;;5068494;28;20206;-68
2023/05/19 10:56:05;;;;;;;0.10;0.10;;;20.40;99.90;24.30;102366.00;;;;5047675;28;20230;-67
2023/05/19 10:59:02;;;;;;;0.17;0.17;;;21.10;99.90;24.10;102392.00;;;;5083722;28;20227;-68
2023/05/19 11:01:50;;;;;;;3.85;1.15;;;21.50;99.90;22.20;102427.00;;;;5068594;28;20189;-68
2023/05/19 11:04:53;;;;;;;1.90;1.27;;;20.90;99.90;21.60;102428.00;;;;5067079;28;20208;-68
2023/05/19 11:08:04;;;;;;;0.40;0.40;;;20.70;99.90;23.40;102409.00;;;;5064250;28;20209;-68
2023/05/19 11:11:16;;;;;;;2.75;0.75;;;20.80;99.90;24.80;102395.00;;;;5066752;28;20209;-68
2023/05/19 11:14:29;;;;;;;2.15;2.05;;;21.90;99.90;22.20;102407.00;;;;5068208;28;20675;-68
2023/05/19 11:17:23;;;;;;;0.20;0.20;;;20.90;99.90;24.40;102391.00;;;;5069347;28;20647;-68
2023/05/19 11:20:24;;;;;;;0.47;0.40;;;21.30;99.90;25.50;102364.00;;;;5098828;28;20189;-68
2023/05/19 11:23:29;;;;;;;0.30;0.30;;;22.20;99.90;25.60;102368.00;;;;5066574;28;20601;-67
2023/05/19 11:26:40;;;;;;;0.10;0.10;;;23.20;99.90;25.30;102375.00;;;;5087615;28;20655;-68
2023/05/19 11:29:31;;;;;;;0.93;0.93;;;21.80;99.90;23.20;102398.00;;;;5048820;28;20201;-68
2023/05/19 11:32:34;;;;;;;0.52;0.52;;;21.40;99.90;23.50;102392.00;;;;5058981;28;20253;-67
2023/05/19 11:35:36;;;;;;;0.20;0.20;;;20.90;99.90;23.30;102390.00;;;;5089690;28;20185;-68
2023/05/19 11:38:23;;;;;;;1.08;0.63;;;21.10;99.90;23.40;102395.00;;;;5101479;28;20188;-68
2023/05/19 11:41:00;;;;;;;0.25;0.25;;;21.20;99.90;24.40;102373.00;;;;5051084;28;20526;-68
2023/05/19 11:43:51;;;;;;;5.00;1.73;;;21.10;99.90;22.10;102398.00;;;;5062074;28;20190;-68
2023/05/19 11:46:20;;;;;;;0.40;0.40;;;21.30;99.90;22.80;102394.00;;;;5027756;28;20186;-68
2023/05/19 11:49:01;;;;;;;0.47;0.47;;;20.30;99.90;23.20;102377.00;;;;5054064;28;20182;-72
2023/05/19 11:51:32;;;;;;;0.85;0.55;;;20.10;99.90;24.40;102373.00;;;;5087176;28;20202;-68
2023/05/19 11:54:20;;;;;;;4.47;1.38;;;21.00;99.90;23.70;102362.00;;;;5052904;28;20205;-68
2023/05/19 11:56:54;;;;;;;11.30;1.27;;;20.90;99.90;23.50;102362.00;;;;5054011;28;20231;-68
2023/05/19 11:59:35;;;;;;;0.10;0.10;;;20.90;99.90;25.00;102302.00;;;;5087238;28;20181;-68
2023/05/19 12:02:20;;;;;;;0.17;0.17;;;21.40;99.90;24.30;102349.00;;;;5053926;28;20194;-68
2023/05/19 12:04:50;;;;;;;0.75;0.63;;;21.10;99.90;25.00;102348.00;;;;5049632;28;20544;-70
2023/05/19 12:07:22;;;;;;;0.75;0.60;;;21.40;99.90;23.50;102365.00;;;;5087954;28;20183;-69
2023/05/19 12:09:54;;;;;;;17.38;0.77;;;21.10;99.90;23.30;102354.00;;;;5054232;28;20186;-69
2023/05/19 12:12:23;;;;;;;0.77;0.68;;;20.40;99.90;22.60;102372.00;;;;5055173;28;20289;-69
2023/05/19 12:14:55;;;;;;;0.28;0.28;;;20.30;99.90;23.40;102358.00;;;;5053708;28;20213;-68
2023/05/19 12:17:24;;;;;;;1.13;1.10;;;20.50;99.90;23.80;102345.00;;;;5053303;28;20650;-68
2023/05/19 12:19:51;;;;;;;0.32;0.32;;;20.80;99.90;24.00;102343.00;;;;5066115;28;20186;-68
2023/05/19 12:22:18;;;;;;;0.45;0.30;;;20.80;99.90;24.10;102339.00;;;;5062237;28;20273;-68
2023/05/19 12:24:50;;;;;;;2.10;1.55;;;21.30;99.90;24.00;102341.00;;;;5039876;28;20186;-70
2023/05/19 12:27:25;;;;;;;1.42;0.88;;;21.20;99.90;23.40;102359.00;;;;5054081;28;20182;-70
2023/05/19 12:29:58;;;;;;;0.90;0.47;;;21.00;99.90;24.20;102335.00;;;;5086754;28;20182;-69
2023/05/19 12:32:42;;;;;;;1.05;1.00;;;21.00;99.90;23.30;102349.00;;;;5053816;28;20214;-68
2023/05/19 12:35:12;;;;;;;1.00;1.00;;;20.70;99.90;22.90;102356.00;;;;5053640;28;20189;-68
2023/05/19 12:37:41;;;;;;;0.93;0.93;;;20.50;99.90;23.50;102334.00;;;;5069763;28;20191;-68
2023/05/19 12:40:15;;;;;;;0.15;0.15;;;20.60;99.90;24.90;102283.00;;;;5054483;28;20185;-69
2023/05/19 12:42:48;;;;;;;2.42;0.85;;;21.20;99.90;23.50;102340.00;;;;5053883;28;20558;-68
2023/05/19 12:45:14;;;;;;;13.55;3.25;;;21.20;99.90;23.60;102342.00;;;;5086093;28;20644;-69
2023/05/19 12:47:47;;;;;;;0.28;0.28;;;20.80;99.90;23.30;102338.00;;;;5054419;28;20189;-68
2023/05/19 12:50:13;;;;;;;0.70;0.70;;;20.60;99.90;22.90;102342.00;;;;5053602;28;20193;-68
2023/05/19 12:52:46;;;;;;;0.68;0.68;;;20.80;99.90;23.40;102328.00;;;;5054185;28;20206;-68
2023/05/19 12:55:19;;;;;;;1.10;1.00;;;20.70;99.90;22.30;102347.00;;;;5051072;28;20183;-68
2023/05/19 12:57:58;;;;;;;0.88;0.82;;;20.40;99.90;23.10;102339.00;;;;5054190;28;20184;-68
2023/05/19 13:00:29;;;;;;;0.90;0.77;;;20.40;99.90;24.00;102332.00;;;;5052965;28;20636;-69
2023/05/19 13:03:04;;;;;;;0.60;0.43;;;20.70;99.90;24.00;102324.00;;;;5052421;28;20644;-68
2023/05/19 13:05:33;;;;;;;0.15;0.15;;;20.90;99.90;24.70;102306.00;;;;5053927;28;20632;-69
2023/05/19 13:08:16;;;;;;;0.15;0.15;;;21.20;99.90;24.60;102303.00;;;;5052428;28;20178;-68
2023/05/19 13:10:48;;;;;;;0.10;0.10;;;21.20;99.90;23.30;102310.00;;;;5084797;28;20190;-68
2023/05/19 13:13:20;;;;;;;4.63;1.35;;;20.90;99.90;23.80;102321.00;;;;5051675;28;20663;-68
2023/05/19 13:15:50;;;;;;;1.33;1.13;;;21.00;99.90;22.90;102325.00;;;;5052662;28;20586;-68
2023/05/19 13:18:22;;;;;;;0.40;0.40;;;20.90;99.90;23.30;102314.00;;;;5036460;28;20552;-68
2023/05/19 13:20:49;;;;;;;1.38;1.27;;;20.60;99.90;23.00;102301.00;;;;5052792;28;20269;-68
2023/05/19 13:23:15;;;;;;;2.10;0.75;;;20.50;99.90;22.20;102323.00;;;;5052002;28;20222;-69
2023/05/19 13:25:46;;;;;;;0.20;0.20;;;20.40;99.90;24.00;102291.00;;;;5063878;28;20286;-68
2023/05/19 13:28:15;;;;;;;0.98;0.98;;;20.50;99.90;24.00;102297.00;;;;5052574;28;20197;-68
2023/05/19 13:30:43;;;;;;;1.35;1.25;;;20.80;99.90;24.00;102295.00;;;;5086552;28;20175;-70
2023/05/19 13:33:14;;;;;;;2.13;1.48;;;21.00;99.90;23.60;102293.00;;;;5068376;28;20253;-70
2023/05/19 13:35:46;;;;;;;3.53;1.13;;;20.80;99.90;24.00;102287.00;;;;5053254;28;20197;-70
2023/05/19 13:38:17;;;;;;;3.42;2.03;;;20.70;99.90;23.10;102305.00;;;;5052305;28;20667;-71
2023/05/19 13:40:48;;;;;;;0.30;0.30;;;20.70;99.90;24.20;102275.00;;;;5069276;28;20648;-70
2023/05/19 13:43:20;;;;;;;1.23;0.85;;;20.80;99.90;24.30;102262.00;;;;5052005;28;20192;-70
2023/05/19 13:45:51;;;;;;;24.75;1.80;;;21.10;99.90;23.00;102296.00;;;;5053455;28;20182;-70
2023/05/19 13:48:22;;;;;;;1.50;1.50;;;20.90;99.90;22.10;102296.00;;;;5053459;28;20537;-70
2023/05/19 13:50:54;;;;;;;0.40;0.40;;;20.20;99.90;22.90;102286.00;;;;5051978;28;20190;-71
2023/05/19 13:53:26;;;;;;;9.50;2.35;;;20.00;99.90;21.90;102288.00;;;;5052003;28;20210;-70
2023/05/19 13:55:59;;;;;;;0.20;0.20;;;20.00;99.90;23.20;102283.00;;;;5053445;28;20174;-70
2023/05/19 13:58:31;;;;;;;2.92;0.90;;;20.10;99.90;22.40;102285.00;;;;5052179;28;20644;-70
2023/05/19 14:01:02;;;;;;;1.33;0.77;;;20.20;99.90;23.80;102278.00;;;;5051841;28;20178;-71
2023/05/19 14:03:36;;;;;;;0.85;0.85;;;20.40;99.90;22.70;102278.00;;;;5053446;28;20210;-70
2023/05/19 14:06:07;;;;;;;0.10;0.10;;;20.20;99.90;23.70;102283.00;;;;5084942;28;20189;-70
2023/05/19 14:08:40;;;;;;;0.50;0.50;;;20.40;99.90;22.40;102300.00;;;;5053354;28;20611;-71
2023/05/19 14:11:20;;;;;;;0.63;0.63;;;20.20;99.90;22.40;102286.00;;;;5053282;28;20175;-70
2023/05/19 14:13:51;;;;;;;0.10;0.10;;;20.10;99.90;23.10;102258.00;;;;5051444;28;20197;-69
2023/05/19 14:16:25;;;;;;;1.00;0.70;;;20.20;99.90;23.00;102270.00;;;;5052764;28;20222;-70
2023/05/19 14:18:56;;;;;;;0.65;0.65;;;20.40;99.90;22.60;102281.00;;;;5052022;28;20193;-70
2023/05/19 14:21:25;;;;;;;1.55;0.55;;;20.20;99.90;23.80;102263.00;;;;5051423;28;20182;-70
2023/05/19 14:23:54;;;;;;;1.05;0.95;;;20.20;99.90;23.80;102224.00;;;;5051633;28;20201;-69
2023/05/19 14:26:23;;;;;;;0.10;0.10;;;20.60;99.90;23.90;102263.00;;;;5051582;28;20639;-70
2023/05/19 14:28:50;;;;;;;0.20;0.20;;;20.80;99.90;24.70;102259.00;;;;5051818;28;20224;-70
2023/05/19 14:31:16;;;;;;;1.23;1.15;;;21.00;99.90;23.30;102212.00;;;;5051690;28;20205;-69
2023/05/19 14:33:42;;;;;;;0.10;0.10;;;21.00;99.90;23.60;102260.00;;;;5051920;28;20174;-70
2023/05/19 14:36:09;;;;;;;5.25;2.55;;;20.70;99.90;23.40;102264.00;;;;5051652;28;20190;-70
2023/05/19 14:38:35;;;;;;;0.30;0.30;;;20.90;99.90;23.20;102259.00;;;;5084960;28;20217;-70
2023/05/19 14:41:02;;;;;;;0.65;0.45;;;20.60;99.90;22.90;102274.00;;;;5027546;28;20715;-70
2023/05/19 14:43:28;;;;;;;0.50;0.50;;;20.60;99.90;23.20;102262.00;;;;5052161;28;20182;-70
2023/05/19 14:45:55;;;;;;;0.35;0.35;;;20.40;99.90;22.60;102279.00;;;;5053018;28;20186;-70
2023/05/19 14:48:21;;;;;;;0.52;0.52;;;20.40;99.90;23.10;102266.00;;;;5052606;28;20190;-70
2023/05/19 14:50:54;;;;;;;0.22;0.22;;;20.50;99.90;24.10;102254.00;;;;5052928;28;20282;-69
2023/05/19 14:53:30;;;;;;;2.78;1.50;;;20.70;99.90;23.50;102260.00;;;;5084724;28;20260;-69
2023/05/19 14:55:55;;;;;;;0.65;0.60;;;21.00;99.90;22.80;102258.00;;;;5052761;28;20182;-69
2023/05/19 14:58:21;;;;;;;0.82;0.82;;;20.60;99.90;23.20;102261.00;;;;5085077;28;20190;-69
2023/05/19 15:00:47;;;;;;;1.25;0.60;;;20.50;99.90;22.40;102224.00;;;;5051565;28;20197;-67
2023/05/19 15:03:38;;;;;;;1.67;1.40;;;20.20;99.90;22.30;102265.00;;;;5043547;28;20657;-67
2023/05/19 15:06:30;;;;;;;7.00;0.70;;;20.40;99.90;23.20;102264.00;;;;5035172;28;20244;-67
2023/05/19 15:09:15;;;;;;;1.95;1.75;;;20.40;99.90;22.20;102271.00;;;;5045429;28;20182;-67
2023/05/19 15:12:04;;;;;;;2.78;1.20;;;20.30;99.90;22.50;102263.00;;;;5052532;28;20255;-67
2023/05/19 15:15:43;;;;;;;0.80;0.80;;;20.30;99.90;23.00;102248.00;;;;5035986;28;20198;-68
2023/05/19 15:18:57;;;;;;;5.13;0.95;;;20.20;99.90;23.40;102243.00;;;;5045831;28;20178;-68
2023/05/19 15:21:48;;;;;;;0.10;0.10;;;20.30;99.90;24.60;102192.00;;;;5040132;28;20190;-67
2023/05/19 15:24:51;;;;;;;3.20;1.33;;;20.90;99.90;23.40;102233.00;;;;5055603;28;20262;-68
2023/05/19 15:28:03;;;;;;;1.48;0.90;;;20.70;99.90;22.50;102258.00;;;;5087504;28;20190;-68
2023/05/19 15:31:09;;;;;;;1.88;1.52;;;20.50;99.90;23.80;102241.00;;;;5054692;28;20189;-68
2023/05/19 15:33:58;;;;;;;0.68;0.68;;;20.60;99.90;23.60;102192.00;;;;5052239;28;20263;-67
2023/05/19 15:37:04;;;;;;;0.47;0.47;;;20.50;99.90;22.90;102240.00;;;;5027852;28;20194;-67
2023/05/19 15:40:08;;;;;;;1.80;1.15;;;20.70;99.90;22.60;102244.00;;;;5053059;28;20190;-67
2023/05/19 15:43:21;;;;;;;0.52;0.52;;;20.00;99.90;22.50;102240.00;;;;5046113;28;20198;-67
2023/05/19 15:46:48;;;;;;;0.40;0.40;;;20.10;99.90;22.70;102235.00;;;;5047772;28;20182;-67
2023/05/19 15:49:37;;;;;;;0.60;0.60;;;20.10;99.90;22.70;102185.00;;;;5048802;28;20533;-67
2023/05/19 15:52:23;;;;;;;1.35;1.13;;;20.00;99.90;23.00;102188.00;;;;5018658;28;20222;-67
2023/05/19 15:55:03;;;;;;;1.52;1.42;;;20.30;99.90;22.50;102227.00;;;;5043948;28;20173;-67
2023/05/19 15:57:46;;;;;;;5.30;0.85;;;20.30;99.90;23.20;102200.00;;;;5036488;28;20194;-67
2023/05/19 16:00:22;;;;;;;0.30;0.30;;;20.30;99.90;23.80;102206.00;;;;5052791;28;20228;-67
2023/05/19 16:02:56;;;;;;;0.82;0.82;;;20.50;99.90;23.70;102190.00;;;;5044583;28;20273;-67
2023/05/19 16:05:28;;;;;;;0.60;0.57;;;20.50;99.90;22.90;102210.00;;;;5050711;28;20543;-67
2023/05/19 16:08:00;;;;;;;0.90;0.88;;;20.40;99.90;22.50;102226.00;;;;5055566;28;20190;-67
2023/05/19 16:10:34;;;;;;;0.40;0.40;;;20.10;99.90;22.50;102219.00;;;;5050746;28;20187;-67
2023/05/19 16:13:05;;;;;;;2.45;1.23;;;20.00;99.90;22.10;102217.00;;;;5085953;28;20251;-67
2023/05/19 16:15:36;;;;;;;0.80;0.75;;;19.90;99.90;22.10;102213.00;;;;5052113;28;20192;-67
2023/05/19 16:18:32;;;;;;;1.27;1.17;;;19.80;99.90;22.10;102214.00;;;;5054121;28;20553;-67
2023/05/19 16:21:12;;;;;;;0.85;0.85;;;19.80;99.90;22.40;102218.00;;;;5053892;28;20521;-67
2023/05/19 16:24:00;;;;;;;1.10;0.75;;;19.70;99.90;22.40;102203.00;;;;5046364;28;20182;-67
2023/05/19 16:26:34;;;;;;;1.13;0.45;;;19.80;99.90;22.10;102221.00;;;;5051494;28;20186;-67
2023/05/19 16:29:11;;;;;;;1.85;0.80;;;19.90;99.90;22.10;102160.00;;;;5053755;28;20269;-67
2023/05/19 16:31:44;;;;;;;0.38;0.38;;;19.90;99.90;22.20;102209.00;;;;5025157;28;20620;-67
2023/05/19 16:34:26;;;;;;;0.43;0.43;;;19.70;99.90;23.00;102200.00;;;;5049455;28;20632;-67
2023/05/19 16:37:18;;;;;;;1.77;1.27;;;20.10;99.90;23.70;102151.00;;;;5059290;28;20202;-67
2023/05/19 16:40:00;;;;;;;1.70;0.30;;;20.30;99.90;22.70;102206.00;;;;5039715;28;20256;-68
2023/05/19 16:42:35;;;;;;;0.10;0.10;;;20.20;99.90;22.80;102164.00;;;;5087687;28;20545;-67
2023/05/19 16:45:16;;;;;;;3.13;0.50;;;20.10;99.90;22.80;102206.00;;;;5062280;28;20773;-67
2023/05/19 16:48:10;;;;;;;1.20;0.73;;;20.10;99.90;22.00;102223.00;;;;5050238;28;20202;-68
2023/05/19 16:51:05;;;;;;;0.93;0.80;;;19.90;99.90;22.50;102198.00;;;;4992886;28;20258;-68
2023/05/19 16:54:11;;;;;;;1.20;0.85;;;19.90;99.90;22.30;102218.00;;;;4970851;28;20673;-67
2023/05/19 16:56:45;;;;;;;0.30;0.30;;;19.90;99.90;22.50;102204.00;;;;5033092;28;20222;-68
2023/05/19 16:59:40;;;;;;;0.75;0.75;;;19.90;99.90;22.00;102212.00;;;;5086393;28;20185;-67
2023/05/19 17:02:31;;;;;;;0.47;0.47;;;19.80;99.90;23.00;102188.00;;;;5032239;28;20706;-67
2023/05/19 17:05:22;;;;;;;0.57;0.57;;;19.80;99.90;22.30;102204.00;;;;5052760;28;20671;-68
2023/05/19 17:08:16;;;;;;;0.52;0.47;;;19.90;99.90;22.40;102196.00;;;;5069274;28;20248;-68
2023/05/19 17:11:20;;;;;;;0.57;0.57;;;19.90;99.90;22.30;102203.00;;;;5085750;28;20210;-67
2023/05/19 17:14:19;;;;;;;1.85;1.08;;;19.60;99.90;22.40;102214.00;;;;5049692;28;20178;-67
2023/05/19 17:17:26;;;;;;;0.40;0.40;;;19.60;99.90;22.80;102184.00;;;;5051727;28;20265;-68
2023/05/19 17:20:34;;;;;;;0.60;0.60;;;19.80;99.90;22.40;102209.00;;;;5052955;28;20163;-67
2023/05/19 17:23:03;;;;;;;0.32;0.32;;;19.80;99.90;22.60;102176.00;;;;5047164;28;20181;-67
2023/05/19 17:26:17;;;;;;;3.50;1.35;;;19.70;99.90;21.80;102213.00;;;;5052254;28;20192;-67
2023/05/19 17:29:08;;;;;;;3.53;0.30;;;19.60;99.90;22.00;102209.00;;;;5036284;28;20198;-67
2023/05/19 17:32:15;;;;;;;0.52;0.30;;;19.60;99.90;22.60;102208.00;;;;5045506;28;20213;-68
2023/05/19 17:35:26;;;;;;;0.10;0.10;;;19.60;99.90;22.00;102210.00;;;;5058735;28;20563;-68
2023/05/19 17:38:17;;;;;;;1.00;0.38;;;19.50;99.90;22.00;102223.00;;;;5043676;28;20669;-67
2023/05/19 17:41:03;;;;;;;0.43;0.43;;;19.40;99.90;21.90;102213.00;;;;5041236;28;20182;-67
2023/05/19 17:44:10;;;;;;;1.05;0.38;;;19.40;99.90;23.00;102206.00;;;;5064333;28;20202;-67
2023/05/19 17:47:02;;;;;;;0.20;0.20;;;19.60;99.90;21.90;102171.00;;;;5051426;28;20197;-68
2023/05/19 17:49:54;;;;;;;0.80;0.80;;;19.40;99.90;21.50;102221.00;;;;5080650;28;20190;-67
2023/05/19 17:52:42;;;;;;;3.63;0.95;;;19.30;99.90;22.10;102185.00;;;;5035079;28;20248;-69
2023/05/19 17:55:47;;;;;;;0.80;0.65;;;19.20;99.90;22.20;102172.00;;;;5045543;28;20606;-68
2023/05/19 17:58:43;;;;;;;0.40;0.32;;;19.30;99.90;21.60;102238.00;;;;5047970;28;20543;-68
2023/05/19 18:01:40;;;;;;;1.65;0.82;;;19.20;99.90;22.10;102217.00;;;;5036867;28;20530;-69
2023/05/19 18:04:36;;;;;;;2.35;0.85;;;19.20;99.90;22.50;102171.00;;;;5033104;28;20190;-69
2023/05/19 18:07:51;;;;;;;0.13;0.13;;;19.40;99.90;21.80;102223.00;;;;5047295;28;20181;-68
2023/05/19 18:11:04;;;;;;;1.75;0.70;;;19.30;99.90;21.40;102232.00;;;;5048895;28;20648;-68
2023/05/19 18:14:01;;;;;;;0.10;0.10;;;19.10;99.90;22.40;102224.00;;;;5048267;28;20636;-69
2023/05/19 18:16:40;;;;;;;0.28;0.28;;;19.30;99.90;22.40;102229.00;;;;5034296;28;20178;-69
2023/05/19 18:19:26;;;;;;;0.50;0.50;;;19.30;99.90;22.40;102224.00;;;;5082638;28;20186;-69
2023/05/19 18:21:55;;;;;;;0.10;0.10;;;19.30;99.90;22.60;102224.00;;;;5050876;28;20210;-69
2023/05/19 18:24:32;;;;;;;1.40;0.90;;;19.40;99.90;22.40;102216.00;;;;5049890;28;20186;-69
2023/05/19 18:27:23;;;;;;;1.65;0.93;;;19.50;99.90;21.80;102230.00;;;;5050528;28;20632;-69
2023/05/19 18:30:12;;;;;;;0.20;0.20;;;19.20;99.90;21.70;102240.00;;;;5032559;28;20281;-69
2023/05/19 18:32:53;;;;;;;1.05;1.05;;;19.00;99.90;21.90;102232.00;;;;5038905;28;20232;-69
2023/05/19 18:35:43;;;;;;;0.20;0.20;;;19.00;99.90;22.70;102196.00;;;;5051933;28;20186;-69
2023/05/19 18:38:37;;;;;;;0.10;0.10;;;19.20;99.90;21.70;102244.00;;;;5052444;28;20239;-69
2023/05/19 18:41:29;;;;;;;0.57;0.57;;;19.00;99.90;21.80;102236.00;;;;5067970;28;20282;-69
2023/05/19 18:44:26;;;;;;;0.47;0.47;;;18.90;99.90;21.80;102240.00;;;;5031412;28;20526;-69
2023/05/19 18:47:04;;;;;;;3.20;1.13;;;18.70;99.90;21.80;102234.00;;;;5046844;28;20739;-69
2023/05/19 18:49:55;;;;;;;0.10;0.10;;;18.70;99.90;22.10;102227.00;;;;5045669;28;20192;-69
2023/05/19 18:52:34;;;;;;;0.10;0.10;;;18.80;99.90;21.80;102202.00;;;;4993313;28;20238;-69
2023/05/19 18:55:20;;;;;;;0.10;0.10;;;18.70;99.90;21.40;102211.00;;;;5046192;28;20189;-69
2023/05/19 18:58:16;;;;;;;0.30;0.30;;;18.60;99.90;21.40;102248.00;;;;5055722;28;20639;-69